BIGE weather

Geysir Airport
Geysir, Southern Region, Iceland

Public forecast

Using degrees Celsius for public forecast. Weather courtesy of forecast.io.

METAR (pilot weather report)

Closest report is Reykjavik Airport, 44.9 nm (83.2 km) WSW. Retrieved 2019/04/21 22:00 UTC (11 minutes ago):

BIRK 212200Z 35006KT CAVOK 05/M00 Q1000

TAF (pilot weather forecast)

Closest forecast is Reykjavik Airport, 44.9 nm (83.2 km) WSW. Retrieved 2019/04/21 21:52 UTC (19 minutes ago):

TAF BIRK 211943Z 2121/2221 09008KT 9999 FEW030 BKN055 TX09/2218Z TN01/2206Z TEMPO 2217/2220 SHRA BKN020CB